createdAt,value
2023-12-23T00:00:56.882Z,94770.72
2023-12-23T00:01:59.577Z,94795.06
2023-12-23T00:03:02.503Z,94793.22
2023-12-23T00:04:05.103Z,94791.94
2023-12-23T00:05:07.262Z,94810.81
2023-12-23T00:06:10.183Z,94783.03
2023-12-23T00:07:12.441Z,94813.94
2023-12-23T00:08:15.156Z,94792.72
2023-12-23T00:09:17.819Z,94816.31
2023-12-23T00:10:20.336Z,94806.31
2023-12-23T00:11:23.493Z,94783.50
2023-12-23T00:12:25.757Z,94801.06
2023-12-23T00:13:29.260Z,94788.25
2023-12-23T00:15:48.135Z,94774.06
2023-12-23T00:16:55.931Z,94752.31
2023-12-23T00:18:07.975Z,94796.09
2023-12-23T00:19:14.173Z,94800.56
2023-12-23T00:20:17.567Z,94819.97
2023-12-23T00:21:25.659Z,94778.78
2023-12-23T00:22:34.414Z,94799.25
2023-12-23T00:23:40.108Z,94775.97
2023-12-23T00:24:43.374Z,94805.06
2023-12-23T00:25:46.150Z,94772.53
2023-12-23T00:26:48.339Z,94785.88
2023-12-23T00:27:54.292Z,94809.47
2023-12-23T00:28:57.502Z,94778.00
2023-12-23T00:30:00.309Z,94753.66
2023-12-23T00:31:03.158Z,94772.75
2023-12-23T00:32:06.311Z,94780.41
2023-12-23T00:33:09.085Z,94778.31
2023-12-23T00:34:11.428Z,94798.47
2023-12-23T00:35:14.562Z,94759.19
2023-12-23T00:36:17.500Z,94786.19
2023-12-23T00:37:20.508Z,94776.47
2023-12-23T00:38:23.370Z,94795.34
2023-12-23T00:39:26.282Z,94790.38
2023-12-23T00:40:29.024Z,94798.25
2023-12-23T00:41:31.684Z,94771.75
2023-12-23T00:42:34.983Z,94798.25
2023-12-23T00:43:37.844Z,94790.91
2023-12-23T00:44:41.016Z,94818.66
2023-12-23T00:45:44.018Z,94803.44
2023-12-23T00:46:52.447Z,94777.00
2023-12-23T00:48:00.914Z,94798.75
2023-12-23T00:49:06.660Z,94819.72
2023-12-23T00:50:09.206Z,94841.75
2023-12-23T00:51:12.414Z,94815.53
2023-12-23T00:52:15.461Z,94841.47
2023-12-23T00:53:18.377Z,94772.75
2023-12-23T00:54:21.467Z,94802.66
2023-12-23T00:55:24.526Z,94833.34
2023-12-23T00:56:31.616Z,94828.63
2023-12-23T00:57:39.880Z,94843.31
2023-12-23T00:58:45.774Z,94833.63
2023-12-23T00:59:50.898Z,94837.56
2023-12-23T09:03:36.222Z,95096.25
2023-12-23T09:04:40.405Z,95109.88
2023-12-23T09:05:58.823Z,95094.94
2023-12-23T09:07:02.499Z,95084.22
2023-12-23T09:08:11.402Z,95097.03
2023-12-23T09:09:15.943Z,95118.78
2023-12-23T09:10:20.642Z,95104.63
2023-12-23T09:11:22.959Z,95120.31
2023-12-23T09:12:31.843Z,95122.69
2023-12-23T09:13:37.088Z,95103.34
2023-12-23T09:14:48.045Z,95116.13
2023-12-23T09:17:10.319Z,95128.19
2023-12-23T09:18:17.782Z,95089.72
2023-12-23T09:21:59.009Z,95117.72
2023-12-23T09:23:04.128Z,95113.28
2023-12-23T09:24:09.109Z,95098.34
2023-12-23T09:25:10.714Z,95115.09
2023-12-23T09:27:30.463Z,95113.28
2023-12-23T09:28:32.395Z,95079.47
2023-12-23T09:31:57.440Z,95112.22
2023-12-23T09:33:01.921Z,95109.59
2023-12-23T09:34:06.725Z,95104.38
2023-12-23T09:35:08.611Z,95100.19
2023-12-23T09:36:10.344Z,95103.59
2023-12-23T09:37:12.272Z,95092.34
2023-12-23T09:38:14.110Z,95115.63
2023-12-23T09:39:15.707Z,95101.50
2023-12-23T09:40:17.574Z,95076.09
2023-12-23T09:41:19.265Z,95106.72
2023-12-23T09:42:23.294Z,95111.97
2023-12-23T09:43:25.829Z,95088.16
2023-12-23T09:44:27.463Z,95115.09
2023-12-23T09:45:28.982Z,95122.72
2023-12-23T09:46:30.510Z,95081.59
2023-12-23T09:47:32.249Z,95125.06
2023-12-23T09:48:34.098Z,95128.47
2023-12-23T09:49:35.801Z,95084.75
2023-12-23T09:50:37.410Z,95094.44
2023-12-23T09:51:39.156Z,95100.44
2023-12-23T09:52:40.697Z,95094.44
2023-12-23T09:53:42.301Z,95125.34
2023-12-23T09:54:43.885Z,95107.25
2023-12-23T09:55:45.472Z,95117.47
2023-12-23T09:56:47.043Z,95124.53
2023-12-23T09:57:48.801Z,95126.13
2023-12-23T09:58:50.736Z,95106.72
2023-12-23T09:59:52.406Z,95111.69
2023-12-23T10:00:56.429Z,95141.56
2023-12-23T10:01:58.457Z,95116.94
2023-12-23T10:03:00.679Z,95121.41
2023-12-23T10:04:02.235Z,95113.53
2023-12-23T10:05:03.923Z,95130.03
2023-12-23T10:06:05.618Z,95102.00
2023-12-23T10:07:07.349Z,95096.78
2023-12-23T10:08:10.704Z,95136.84
2023-12-23T10:09:15.903Z,95133.19
2023-12-23T10:12:11.166Z,95120.34
2023-12-23T10:16:15.265Z,95116.72
2023-12-23T10:17:17.176Z,95140.53
2023-12-23T10:18:21.916Z,95107.25
2023-12-23T10:19:32.665Z,95108.31
2023-12-23T10:20:34.504Z,95134.50
2023-12-23T10:21:38.600Z,95083.94
2023-12-23T10:22:41.720Z,95129.53
2023-12-23T10:23:44.492Z,95116.44
2023-12-23T10:26:01.619Z,95120.09
2023-12-23T10:30:45.624Z,95129.00
2023-12-23T10:48:10.937Z,95127.44
2023-12-23T12:28:50.562Z,95101.25
2023-12-23T12:30:15.586Z,95137.91
2023-12-23T12:31:40.615Z,95137.66
2023-12-23T13:05:42.923Z,95169.34
2023-12-23T13:07:07.111Z,95129.00
2023-12-23T13:08:12.810Z,95125.59
2023-12-23T14:27:48.009Z,95279.00
2023-12-23T15:26:28.841Z,95332.69
2023-12-23T15:28:51.131Z,95348.94
2023-12-23T15:29:55.338Z,95345.00
2023-12-23T15:31:17.425Z,95309.13
2023-12-23T15:32:19.485Z,95351.03
2023-12-23T15:33:33.793Z,95338.72
2023-12-23T15:34:35.701Z,95338.72
2023-12-23T15:35:37.679Z,95339.25
2023-12-23T17:26:58.537Z,95497.72
2023-12-23T17:41:47.018Z,95507.66
2023-12-23T17:47:44.357Z,95491.72
2023-12-23T18:39:36.274Z,95506.03
2023-12-23T18:48:36.549Z,95509.91
2023-12-23T18:49:43.908Z,95557.31
2023-12-23T18:50:47.171Z,95521.19
2023-12-23T19:48:33.915Z,95559.94
2023-12-23T23:51:08.360Z,95690.28
2023-12-23T23:52:10.527Z,95675.16
2023-12-23T23:53:24.235Z,95649.72
